createdAt,value
2023-03-27T00:01:43.574Z,88.40
2023-03-27T00:04:12.134Z,87.83
2023-03-27T00:06:48.882Z,88.05
2023-03-27T00:09:19.967Z,88.11
2023-03-27T00:11:49.138Z,88.58
2023-03-27T00:14:17.853Z,88.82
2023-03-27T00:16:47.881Z,87.84
2023-03-27T00:19:16.982Z,89.46
2023-03-27T00:21:46.141Z,88.89
2023-03-27T00:24:15.945Z,88.90
2023-03-27T00:26:44.583Z,87.93
2023-03-27T00:29:14.161Z,88.45
2023-03-27T00:31:42.604Z,87.75
2023-03-27T00:34:13.467Z,88.75
2023-03-27T00:36:43.771Z,88.84
2023-03-27T00:39:12.262Z,88.61
2023-03-27T00:41:40.692Z,88.30
2023-03-27T00:44:25.382Z,88.72
2023-03-27T00:46:57.114Z,88.27
2023-03-27T00:49:30.013Z,88.83
2023-03-27T00:51:59.241Z,88.97
2023-03-27T00:54:32.287Z,88.74
2023-03-27T00:57:06.180Z,89.52
2023-03-27T00:59:40.080Z,89.39
2023-03-27T01:02:10.171Z,89.70
2023-03-27T01:04:41.400Z,88.28
2023-03-27T01:07:11.978Z,88.41
2023-03-27T01:09:40.569Z,89.92
2023-03-27T01:12:21.479Z,90.00
2023-03-27T01:15:07.451Z,90.13
2023-03-27T01:17:51.874Z,89.57
2023-03-27T01:21:19.503Z,90.13
2023-03-27T01:24:52.435Z,90.29
2023-03-27T01:27:25.854Z,90.28
2023-03-27T01:30:12.052Z,89.85
2023-03-27T01:33:30.278Z,90.47
2023-03-27T01:36:26.599Z,90.13
2023-03-27T01:39:19.879Z,90.02
2023-03-27T01:41:56.854Z,90.27
2023-03-27T01:44:36.434Z,90.19
2023-03-27T01:47:21.667Z,89.98
2023-03-27T01:49:56.690Z,90.49
2023-03-27T01:52:31.128Z,89.65
2023-03-27T01:55:05.667Z,89.71
2023-03-27T01:57:49.335Z,89.98
2023-03-27T02:00:23.268Z,89.56
2023-03-27T02:02:58.285Z,90.50
2023-03-27T02:05:35.780Z,89.19
2023-03-27T02:08:13.800Z,89.59
2023-03-27T02:10:49.027Z,90.54
2023-03-27T02:13:21.733Z,89.89
2023-03-27T02:15:51.918Z,89.81
2023-03-27T02:18:27.754Z,90.16
2023-03-27T02:20:56.538Z,90.38
2023-03-27T02:23:25.098Z,89.89
2023-03-27T02:25:55.488Z,89.96
2023-03-27T02:28:47.901Z,89.90
2023-03-27T02:31:41.513Z,89.93
2023-03-27T02:34:46.805Z,90.08
2023-03-27T02:37:32.372Z,89.77
2023-03-27T02:40:15.172Z,90.01
2023-03-27T02:43:01.138Z,89.83
2023-03-27T02:45:42.198Z,90.18
2023-03-27T02:48:17.890Z,89.41
2023-03-27T02:50:53.402Z,90.38
2023-03-27T02:53:25.556Z,89.21
2023-03-27T02:55:57.516Z,89.01
2023-03-27T02:58:36.473Z,90.07
2023-03-27T03:01:09.617Z,89.78
2023-03-27T03:03:43.743Z,90.17
2023-03-27T03:06:14.556Z,90.58
2023-03-27T03:08:43.296Z,90.49
2023-03-27T03:11:15.148Z,90.31
2023-03-27T03:13:44.960Z,90.72
2023-03-27T03:16:13.528Z,90.15
2023-03-27T03:18:41.974Z,89.90
2023-03-27T03:21:10.716Z,90.01
2023-03-27T03:23:39.439Z,89.39
2023-03-27T03:26:08.785Z,89.13
2023-03-27T03:28:38.252Z,89.80
2023-03-27T03:31:10.923Z,89.57
2023-03-27T03:33:39.745Z,89.05
2023-03-27T03:36:09.816Z,89.84
2023-03-27T03:38:38.517Z,89.17
2023-03-27T03:41:08.114Z,89.04
2023-03-27T03:43:36.634Z,90.34
2023-03-27T03:46:05.589Z,90.63
2023-03-27T03:48:35.453Z,90.03
2023-03-27T03:51:03.984Z,89.18
2023-03-27T03:53:32.443Z,89.92
2023-03-27T03:56:01.788Z,90.32
2023-03-27T03:58:34.554Z,89.86
2023-03-27T04:01:04.015Z,90.62
2023-03-27T04:03:34.107Z,89.80
2023-03-27T04:06:05.683Z,89.43
2023-03-27T04:08:35.363Z,89.68
2023-03-27T04:11:04.464Z,90.28
2023-03-27T04:13:33.727Z,90.06
2023-03-27T04:16:02.564Z,90.07
2023-03-27T04:18:32.907Z,89.92
2023-03-27T04:21:03.353Z,91.53
2023-03-27T04:23:31.817Z,91.04
2023-03-27T04:26:02.071Z,90.31
2023-03-27T04:28:34.601Z,90.08
2023-03-27T04:31:06.440Z,90.12
2023-03-27T04:33:35.826Z,91.23
2023-03-27T04:36:07.817Z,90.62
2023-03-27T04:38:38.193Z,90.38
2023-03-27T04:41:07.412Z,90.24
2023-03-27T04:43:36.952Z,89.81
2023-03-27T04:46:07.349Z,90.11
2023-03-27T04:48:39.243Z,89.56
2023-03-27T04:51:09.720Z,90.22
2023-03-27T04:53:38.799Z,90.12
2023-03-27T04:56:09.837Z,89.25
2023-03-27T04:58:41.072Z,88.40
2023-03-27T05:01:10.337Z,87.45
2023-03-27T05:03:39.298Z,87.69
2023-03-27T05:06:10.601Z,88.51
2023-03-27T05:08:39.044Z,88.95
2023-03-27T05:11:07.849Z,89.47
2023-03-27T05:13:36.329Z,88.55
2023-03-27T05:16:05.584Z,88.76
2023-03-27T05:18:34.063Z,88.65
2023-03-27T05:21:02.586Z,88.02
2023-03-27T05:23:32.696Z,87.77
2023-03-27T05:26:03.657Z,86.97
2023-03-27T05:31:22.351Z,87.46
2023-03-27T05:33:51.713Z,88.24
2023-03-27T05:36:22.137Z,87.90
2023-03-27T05:38:53.205Z,88.01
2023-03-27T05:41:22.077Z,87.15
2023-03-27T05:43:51.708Z,86.87
2023-03-27T05:46:21.724Z,87.20
2023-03-27T05:48:50.962Z,86.79
2023-03-27T05:51:19.597Z,86.74
2023-03-27T05:53:48.092Z,86.61
2023-03-27T05:56:17.900Z,87.25
2023-03-27T05:58:50.498Z,86.84
2023-03-27T06:01:18.964Z,86.99
2023-03-27T06:03:49.417Z,87.15
2023-03-27T06:06:18.030Z,87.42
2023-03-27T06:08:46.461Z,87.09
2023-03-27T06:11:17.179Z,87.69
2023-03-27T06:13:45.737Z,87.90
2023-03-27T06:16:15.120Z,88.27
2023-03-27T06:18:43.553Z,88.34
2023-03-27T06:21:12.831Z,87.86
2023-03-27T06:23:41.683Z,88.01
2023-03-27T06:26:10.122Z,88.16
2023-03-27T06:28:41.242Z,88.32
2023-03-27T06:31:09.990Z,88.50
2023-03-27T06:33:40.683Z,88.58
2023-03-27T06:36:11.088Z,88.48
2023-03-27T06:38:39.672Z,86.51
2023-03-27T06:41:10.240Z,87.30
2023-03-27T06:43:40.102Z,87.76
2023-03-27T06:46:08.655Z,87.28
2023-03-27T06:48:37.749Z,87.24
2023-03-27T06:51:07.562Z,87.05
2023-03-27T06:53:38.234Z,87.47
2023-03-27T06:56:08.483Z,88.05
2023-03-27T06:58:37.409Z,87.15
2023-03-27T07:01:08.386Z,86.34
2023-03-27T07:03:37.655Z,82.98
2023-03-27T07:06:07.433Z,81.39
2023-03-27T07:08:36.482Z,81.91
2023-03-27T07:11:11.542Z,81.09
2023-03-27T07:13:42.689Z,79.29
2023-03-27T07:16:13.194Z,81.14
2023-03-27T07:18:42.311Z,80.48
2023-03-27T07:21:12.958Z,82.39
2023-03-27T07:23:41.543Z,80.47
2023-03-27T07:26:10.025Z,80.42
2023-03-27T07:28:39.554Z,81.68
2023-03-27T07:31:29.305Z,81.33
2023-03-27T07:34:02.655Z,82.28
2023-03-27T07:36:31.246Z,82.81
2023-03-27T07:39:00.974Z,82.68
2023-03-27T07:41:30.453Z,81.41
2023-03-27T07:43:59.001Z,82.19
2023-03-27T07:46:28.998Z,79.10
2023-03-27T07:48:58.021Z,80.71
2023-03-27T07:51:27.524Z,79.69
2023-03-27T07:53:58.763Z,80.29
2023-03-27T07:56:28.126Z,77.95
2023-03-27T07:58:56.572Z,78.82
2023-03-27T08:01:26.449Z,80.03
2023-03-27T08:03:57.430Z,76.90
2023-03-27T08:06:26.179Z,77.15
2023-03-27T08:08:55.326Z,76.42
2023-03-27T08:11:30.657Z,74.98
2023-03-27T08:14:00.095Z,75.37
2023-03-27T08:16:30.470Z,76.48
2023-03-27T08:19:01.812Z,77.53
2023-03-27T08:21:33.333Z,76.30
2023-03-27T08:24:05.228Z,77.42
2023-03-27T08:26:33.828Z,75.12
2023-03-27T08:29:02.304Z,73.61
2023-03-27T08:31:31.471Z,76.07
2023-03-27T08:34:01.483Z,71.24
2023-03-27T08:36:32.490Z,71.23
2023-03-27T08:39:03.006Z,71.31
2023-03-27T08:41:39.134Z,70.73
2023-03-27T08:44:12.529Z,71.17
2023-03-27T08:46:50.649Z,72.87
2023-03-27T08:49:22.258Z,71.70
2023-03-27T08:51:56.011Z,71.86
2023-03-27T08:54:27.217Z,72.23
2023-03-27T08:56:56.665Z,69.79
2023-03-27T08:59:29.470Z,70.44
2023-03-27T09:02:06.120Z,69.67
2023-03-27T09:04:48.647Z,69.33
2023-03-27T09:07:24.182Z,68.77
2023-03-27T09:10:01.947Z,69.91
2023-03-27T09:12:47.651Z,72.79
2023-03-27T09:15:22.498Z,73.91
2023-03-27T09:17:54.633Z,71.60
2023-03-27T09:20:32.111Z,67.35
2023-03-27T09:23:11.001Z,72.38
2023-03-27T09:25:42.769Z,71.44
2023-03-27T09:28:21.741Z,67.77
2023-03-27T09:30:50.205Z,72.30
2023-03-27T09:33:19.791Z,70.05
2023-03-27T09:35:49.721Z,69.93
2023-03-27T09:38:29.844Z,71.63
2023-03-27T09:41:02.952Z,71.78
2023-03-27T09:43:41.575Z,71.63
2023-03-27T09:46:11.624Z,70.58
2023-03-27T09:48:47.049Z,69.73
2023-03-27T09:51:39.344Z,68.18
2023-03-27T09:54:08.360Z,69.20
2023-03-27T09:56:39.734Z,68.97
2023-03-27T09:59:24.241Z,65.83
2023-03-27T10:01:54.815Z,71.14
2023-03-27T10:04:25.670Z,69.56
2023-03-27T10:07:02.535Z,66.08
2023-03-27T10:09:34.358Z,64.89
2023-03-27T10:12:12.247Z,66.44
2023-03-27T10:14:43.630Z,67.56
2023-03-27T10:17:24.309Z,69.60
2023-03-27T10:19:58.814Z,69.90
2023-03-27T10:22:32.458Z,67.48
2023-03-27T10:25:04.796Z,67.59
2023-03-27T10:27:36.443Z,69.92
2023-03-27T10:30:29.692Z,67.66
2023-03-27T10:32:58.211Z,67.41
2023-03-27T10:35:34.691Z,67.58
2023-03-27T10:38:12.653Z,65.81
2023-03-27T10:40:43.354Z,66.04
2023-03-27T10:43:15.594Z,68.48
2023-03-27T10:45:50.333Z,69.75
2023-03-27T10:48:43.273Z,65.94
2023-03-27T10:51:35.939Z,66.70
2023-03-27T10:54:16.827Z,68.19
2023-03-27T10:56:55.295Z,65.56
2023-03-27T10:59:41.083Z,65.59
2023-03-27T11:02:18.492Z,66.40
2023-03-27T11:04:53.068Z,67.66
2023-03-27T11:07:28.621Z,67.75
2023-03-27T11:10:05.020Z,66.68
2023-03-27T11:12:37.230Z,63.37
2023-03-27T11:15:14.135Z,65.46
2023-03-27T11:17:49.288Z,65.08
2023-03-27T11:20:26.247Z,62.57
2023-03-27T11:23:01.295Z,62.01
2023-03-27T11:25:41.250Z,62.12
2023-03-27T11:28:21.368Z,60.57
2023-03-27T11:30:57.393Z,62.09
2023-03-27T11:33:38.636Z,62.85
2023-03-27T11:36:29.982Z,63.19
2023-03-27T11:39:15.441Z,65.01
2023-03-27T11:41:51.037Z,64.70
2023-03-27T11:44:19.593Z,62.50
2023-03-27T11:47:10.223Z,60.55
2023-03-27T11:50:11.407Z,62.70
2023-03-27T11:52:53.660Z,61.32
2023-03-27T11:55:32.655Z,61.35
2023-03-27T11:58:19.183Z,60.86
2023-03-27T12:00:58.845Z,61.00
2023-03-27T12:04:19.618Z,61.39
2023-03-27T12:07:04.014Z,60.27
2023-03-27T12:09:47.738Z,60.55
2023-03-27T12:12:34.839Z,57.83
2023-03-27T12:15:24.210Z,60.28
2023-03-27T12:18:02.780Z,58.23
2023-03-27T12:21:06.613Z,58.66
2023-03-27T12:23:51.645Z,60.17
2023-03-27T12:26:43.730Z,63.06
2023-03-27T12:29:30.859Z,61.66
2023-03-27T12:32:18.112Z,57.83
2023-03-27T12:34:54.517Z,56.70
2023-03-27T12:37:30.162Z,57.59
2023-03-27T12:40:00.289Z,56.12
2023-03-27T12:42:52.003Z,57.08
2023-03-27T12:45:23.903Z,58.26
2023-03-27T12:48:18.989Z,57.34
2023-03-27T12:50:56.889Z,58.90
2023-03-27T12:53:56.443Z,58.23
2023-03-27T12:56:33.627Z,58.84
2023-03-27T12:59:06.537Z,60.39
2023-03-27T13:02:01.535Z,60.66
2023-03-27T13:05:26.980Z,56.07
2023-03-27T13:08:15.615Z,58.77
2023-03-27T13:10:57.952Z,58.17
2023-03-27T13:14:27.486Z,54.69
2023-03-27T13:17:35.849Z,55.59
2023-03-27T13:20:20.062Z,55.18
2023-03-27T13:23:11.983Z,57.84
2023-03-27T13:26:01.087Z,58.90
2023-03-27T13:28:37.254Z,57.37
2023-03-27T13:31:09.518Z,58.75
2023-03-27T13:34:12.619Z,57.96
2023-03-27T13:36:48.853Z,57.92
2023-03-27T13:39:24.087Z,57.41
2023-03-27T13:42:10.258Z,58.29
2023-03-27T13:44:58.923Z,55.43
2023-03-27T13:48:01.756Z,57.55
2023-03-27T13:51:24.514Z,57.03
2023-03-27T13:54:40.689Z,56.48
2023-03-27T13:57:28.641Z,55.30
2023-03-27T14:00:28.198Z,56.69
2023-03-27T14:04:03.436Z,56.81
2023-03-27T14:07:17.612Z,56.62
2023-03-27T14:10:11.506Z,58.19
2023-03-27T14:12:56.367Z,61.01
2023-03-27T14:16:01.471Z,58.07
2023-03-27T14:19:10.732Z,59.66
2023-03-27T14:21:53.761Z,59.96
2023-03-27T14:24:32.460Z,61.21
2023-03-27T14:27:04.217Z,58.26
2023-03-27T14:29:34.887Z,57.01
2023-03-27T14:32:05.166Z,59.68
2023-03-27T14:34:51.049Z,58.68
2023-03-27T14:37:32.138Z,60.36
2023-03-27T14:40:02.030Z,60.20
2023-03-27T14:42:33.574Z,57.25
2023-03-27T14:45:20.652Z,58.12
2023-03-27T14:47:53.048Z,59.70
2023-03-27T14:50:21.703Z,57.90
2023-03-27T14:52:54.557Z,57.77
2023-03-27T14:55:26.965Z,57.67
2023-03-27T14:58:02.463Z,58.31
2023-03-27T15:00:35.115Z,60.18
2023-03-27T15:03:08.837Z,61.28
2023-03-27T15:05:57.298Z,65.00
2023-03-27T15:08:28.986Z,73.02
2023-03-27T15:10:57.615Z,76.27
2023-03-27T15:13:33.826Z,77.87
2023-03-27T15:16:03.028Z,76.02
2023-03-27T15:18:36.335Z,74.64
2023-03-27T15:21:08.305Z,76.71
2023-03-27T15:23:43.551Z,76.27
2023-03-27T15:26:20.277Z,76.06
2023-03-27T15:29:04.391Z,75.21
2023-03-27T15:31:35.681Z,75.92
2023-03-27T15:34:09.309Z,76.07
2023-03-27T15:36:39.534Z,75.25
2023-03-27T15:39:08.465Z,75.20
2023-03-27T15:41:44.896Z,74.40
2023-03-27T15:44:19.881Z,72.21
2023-03-27T15:46:55.831Z,75.74
2023-03-27T15:49:29.729Z,74.45
2023-03-27T15:52:00.184Z,74.59
2023-03-27T15:54:33.273Z,75.30
2023-03-27T15:57:09.862Z,74.61
2023-03-27T15:59:52.576Z,73.90
2023-03-27T16:02:23.447Z,73.58
2023-03-27T16:04:55.060Z,73.04
2023-03-27T16:07:27.749Z,74.35
2023-03-27T16:09:59.804Z,72.15
2023-03-27T16:12:33.849Z,73.29
2023-03-27T16:15:08.148Z,74.11
2023-03-27T16:17:46.135Z,74.58
2023-03-27T16:20:37.375Z,72.64
2023-03-27T16:23:06.502Z,71.77
2023-03-27T16:25:35.116Z,71.79
2023-03-27T16:28:03.827Z,74.66
2023-03-27T16:30:36.386Z,77.86
2023-03-27T16:33:10.178Z,81.48
2023-03-27T16:35:38.862Z,82.31
2023-03-27T16:38:07.549Z,82.66
2023-03-27T16:40:36.713Z,83.99
2023-03-27T16:43:05.145Z,84.34
2023-03-27T16:45:36.060Z,82.87
2023-03-27T16:48:05.243Z,82.80
2023-03-27T16:50:35.097Z,83.40
2023-03-27T16:53:03.680Z,81.63
2023-03-27T16:55:32.085Z,79.72
2023-03-27T16:58:00.850Z,80.11
2023-03-27T17:00:29.289Z,79.47
2023-03-27T17:02:59.194Z,79.81
2023-03-27T17:05:33.805Z,79.57
2023-03-27T17:08:04.562Z,80.03
2023-03-27T17:10:34.482Z,81.47
2023-03-27T17:13:02.960Z,82.75
2023-03-27T17:15:31.614Z,82.80
2023-03-27T17:18:01.449Z,83.93
2023-03-27T17:20:30.173Z,81.55
2023-03-27T17:22:59.028Z,81.11
2023-03-27T17:25:27.941Z,81.69
2023-03-27T17:27:57.233Z,81.51
2023-03-27T17:30:38.055Z,82.03
2023-03-27T17:33:11.550Z,82.83
2023-03-27T17:35:40.647Z,84.38
2023-03-27T17:38:10.362Z,85.07
2023-03-27T17:40:41.479Z,85.63
2023-03-27T17:43:10.597Z,85.57
2023-03-27T17:45:41.837Z,85.16
2023-03-27T17:48:12.736Z,85.63
2023-03-27T17:50:41.543Z,85.17
2023-03-27T17:53:10.000Z,86.29
2023-03-27T17:55:39.087Z,85.23
2023-03-27T17:58:10.002Z,83.68
2023-03-27T18:00:39.396Z,83.99
2023-03-27T18:03:08.903Z,84.07
2023-03-27T18:05:40.124Z,83.60
2023-03-27T18:08:11.981Z,83.72
2023-03-27T18:10:45.506Z,82.52
2023-03-27T18:13:14.196Z,81.12
2023-03-27T18:15:42.900Z,82.05
2023-03-27T18:18:11.784Z,81.97
2023-03-27T18:20:41.908Z,82.52
2023-03-27T18:23:10.599Z,83.27
2023-03-27T18:25:41.986Z,83.14
2023-03-27T18:28:11.350Z,82.46
2023-03-27T18:30:40.173Z,81.86
2023-03-27T18:33:08.750Z,80.97
2023-03-27T18:35:37.552Z,81.06
2023-03-27T18:38:07.812Z,80.81
2023-03-27T18:40:36.775Z,80.13
2023-03-27T18:43:05.493Z,81.00
2023-03-27T18:45:34.795Z,80.69
2023-03-27T18:48:03.334Z,80.39
2023-03-27T18:50:32.061Z,80.43
2023-03-27T18:53:00.692Z,80.78
2023-03-27T18:55:31.087Z,80.28
2023-03-27T18:57:59.528Z,81.40
2023-03-27T19:00:27.997Z,80.64
2023-03-27T19:02:56.973Z,80.67
2023-03-27T19:05:25.629Z,81.85
2023-03-27T19:07:57.909Z,81.73
2023-03-27T19:10:26.623Z,81.64
2023-03-27T19:12:56.659Z,82.37
2023-03-27T19:15:25.086Z,81.06
2023-03-27T19:17:53.986Z,80.45
2023-03-27T19:20:22.704Z,81.65
2023-03-27T19:22:51.679Z,81.71
2023-03-27T19:25:21.532Z,82.29
2023-03-27T19:27:49.948Z,81.66
2023-03-27T19:30:19.969Z,82.83
2023-03-27T19:32:48.724Z,83.11
2023-03-27T19:35:17.321Z,82.73
2023-03-27T19:37:45.972Z,83.18
2023-03-27T19:40:15.409Z,82.87
2023-03-27T19:42:44.218Z,81.95
2023-03-27T19:45:13.123Z,83.44
2023-03-27T19:47:43.633Z,82.69
2023-03-27T19:50:14.534Z,85.67
2023-03-27T19:52:49.430Z,84.16
2023-03-27T19:55:25.569Z,84.88
2023-03-27T19:57:55.033Z,84.33
2023-03-27T20:00:23.701Z,83.26
2023-03-27T20:02:53.829Z,83.51
2023-03-27T20:05:22.457Z,84.18
2023-03-27T20:07:50.908Z,84.06
2023-03-27T20:10:20.310Z,84.49
2023-03-27T20:12:48.841Z,85.20
2023-03-27T20:15:17.536Z,85.95
2023-03-27T20:20:35.835Z,84.80
2023-03-27T20:23:04.360Z,84.34
2023-03-27T20:25:33.482Z,82.90
2023-03-27T20:28:03.055Z,83.17
2023-03-27T20:30:32.699Z,83.65
2023-03-27T20:33:03.178Z,83.68
2023-03-27T20:35:33.275Z,86.51
2023-03-27T20:38:05.729Z,84.87
2023-03-27T20:40:52.818Z,83.80
2023-03-27T20:43:23.151Z,84.74
2023-03-27T20:45:53.108Z,84.95
2023-03-27T20:48:22.179Z,84.14
2023-03-27T20:50:53.070Z,85.84
2023-03-27T20:53:30.472Z,84.15
2023-03-27T20:56:03.541Z,85.43
2023-03-27T20:58:34.770Z,86.16
2023-03-27T21:01:05.034Z,85.46
2023-03-27T21:03:35.110Z,84.72
2023-03-27T21:06:07.273Z,83.85
2023-03-27T21:08:37.592Z,84.36
2023-03-27T21:11:07.114Z,83.77
2023-03-27T21:13:35.867Z,84.47
2023-03-27T21:16:05.585Z,85.07
2023-03-27T21:18:34.298Z,84.58
2023-03-27T21:21:02.805Z,84.95
2023-03-27T21:23:31.387Z,84.41
2023-03-27T21:26:01.839Z,84.91
2023-03-27T21:28:30.702Z,85.17
2023-03-27T21:30:59.808Z,83.57
2023-03-27T21:33:28.243Z,85.71
2023-03-27T21:35:57.009Z,84.61
2023-03-27T21:38:25.676Z,85.67
2023-03-27T21:40:54.147Z,85.61
2023-03-27T21:43:24.319Z,85.47
2023-03-27T21:45:53.468Z,84.88
2023-03-27T21:48:22.015Z,83.36
2023-03-27T21:50:50.609Z,83.13
2023-03-27T21:53:19.050Z,85.96
2023-03-27T21:55:47.957Z,83.91
2023-03-27T21:58:16.429Z,83.80
2023-03-27T22:00:47.738Z,83.27
2023-03-27T22:03:16.691Z,83.17
2023-03-27T22:05:54.348Z,82.81
2023-03-27T22:08:29.828Z,85.85
2023-03-27T22:10:59.983Z,86.03
2023-03-27T22:13:28.812Z,86.71
2023-03-27T22:15:59.131Z,86.31
2023-03-27T22:18:28.283Z,85.66
2023-03-27T22:20:56.702Z,86.58
2023-03-27T22:23:25.351Z,84.91
2023-03-27T22:25:54.463Z,86.18
2023-03-27T22:28:22.893Z,87.42
2023-03-27T22:30:52.744Z,86.29
2023-03-27T22:33:22.790Z,85.69
2023-03-27T22:35:51.713Z,87.27
2023-03-27T22:38:20.219Z,86.85
2023-03-27T22:40:48.695Z,86.79
2023-03-27T22:43:23.119Z,87.34
2023-03-27T22:45:52.884Z,87.68
2023-03-27T22:48:22.721Z,87.58
2023-03-27T22:50:56.288Z,86.63
2023-03-27T22:53:28.652Z,86.54
2023-03-27T22:56:00.216Z,85.45
2023-03-27T22:58:29.907Z,85.39
2023-03-27T23:00:59.307Z,85.08
2023-03-27T23:03:29.547Z,86.25
2023-03-27T23:05:58.327Z,86.96
2023-03-27T23:08:29.316Z,88.52
2023-03-27T23:11:00.307Z,85.99
2023-03-27T23:13:31.818Z,86.08
2023-03-27T23:16:01.287Z,86.35
2023-03-27T23:18:31.554Z,84.85
2023-03-27T23:21:02.028Z,85.04
2023-03-27T23:23:32.864Z,85.32
2023-03-27T23:26:01.818Z,84.98
2023-03-27T23:28:34.185Z,84.89
2023-03-27T23:31:05.407Z,84.96
2023-03-27T23:33:38.988Z,84.67
2023-03-27T23:36:10.979Z,84.28
2023-03-27T23:38:41.937Z,84.88
2023-03-27T23:41:12.884Z,84.50
2023-03-27T23:43:41.375Z,84.57
2023-03-27T23:46:11.528Z,84.52
2023-03-27T23:48:43.799Z,84.75
2023-03-27T23:51:16.588Z,84.00
2023-03-27T23:53:45.534Z,84.48
2023-03-27T23:56:14.237Z,83.81
2023-03-27T23:58:42.774Z,84.10
